Terminal Aerodrome Forecast
Issued by NWS

Home | Current Version | Previous Version | Text Only | Print | Product List | Glossary On
Versions: 1 2 3 4 5 6 7 8 9 10 11 12 13 14 15 16 17 18 19 20 21 22 23 24 25 26 27 28 29 30 31 32 33 34 35 36 37 38 39 40 41 42 43
000
FTUS45 KGJT 220630 AAA
TAFRIL
TAF AMD
KRIL 220630Z 2207/2306 VRB05KT P6SM VCSH FEW015 BKN040
      WS010/32035KT
      TEMPO 2207/2211 32015G25KT -RASN SCT015 OVC040
     FM221100 29010KT 1SM -SN BR VCSH OVC010 WS020/32035KT
     FM221800 30010KT P6SM VCSH SCT010 OVC040 WS020/32035KT
      TEMPO 2218/2222 3SM -SNRA SCT010 BKN020
     FM222200 33008KT 4SM -RASN SCT010 BKN020 WS020/32035KT=

USA.gov is the U.S. government's official web portal to all federal, state and local government web resources and services.